Helliar — 2EPP5 — position and weather

sailwx.info

Track history (hours):
 
Tides and Currents Weather Stations Pressure Air Temp Water Temp Dewpoint Dewpoint Depression Visibility Wind Speed Wind Dir Waves Ship Positions

Helliar

Last reported at 2016-Dec-01 20:09 UTC. Time now 2016-Dec-03 00:23 UTC.
Position N 57°37' W 001°37'.

Length 122 m; draft 5.6 m.

Type: Cargo ship. MMSI: 235087119.

Date/timePositionNaut miles runAvg speedWind from/ knotsBaromVisibWave heightAir tempDewpointWater temp
2016-Dec-01 20:09N 57°37' W 001°37'914.6
2016-Dec-01 19:33N 57°28' W 001°40'1615.3
2016-Dec-01 18:31N 57°15' W 001°54'8 8.5
2016-Dec-01 17:32N 57°09' W 002°05'0 0.0
2016-Dec-01 16:32N 57°09' W 002°05'0 0.0
2016-Dec-01 15:32N 57°09' W 002°05'0 0.0
2016-Dec-01 14:32N 57°09' W 002°05'0 0.0
2016-Dec-01 13:29N 57°09' W 002°05'0 0.0
2016-Dec-01 12:32N 57°09' W 002°05'0 0.0
2016-Dec-01 11:32N 57°09' W 002°05'0 0.0
2016-Dec-01 10:32N 57°09' W 002°05'0 0.0
2016-Dec-01 09:32N 57°09' W 002°05'0 0.0
2016-Dec-01 08:32N 57°09' W 002°05'0 0.0
2016-Dec-01 07:32N 57°09' W 002°05'0 0.0
2016-Dec-01 06:32N 57°09' W 002°05'0 0.0
2016-Dec-01 05:32N 57°09' W 002°05'0 0.0
2016-Dec-01 04:32N 57°09' W 002°05'0 0.0
2016-Dec-01 03:32N 57°09' W 002°05'0 0.0
2016-Dec-01 02:32N 57°09' W 002°05'0 0.0
2016-Dec-01 01:32N 57°09' W 002°05'0 0.0
2016-Dec-01 00:32N 57°09' W 002°05'0 0.0
2016-Nov-30 23:32N 57°09' W 002°05'0 0.0
2016-Nov-30 22:32N 57°09' W 002°05'0 0.0
2016-Nov-30 21:32N 57°09' W 002°05'0 0.0
2016-Nov-30 20:32N 57°09' W 002°05'0 0.0
2016-Nov-30 19:32N 57°09' W 002°05'0 0.0
2016-Nov-30 18:32N 57°09' W 002°05'0 0.0
2016-Nov-30 17:32N 57°09' W 002°05'0 0.0
2016-Nov-30 16:32N 57°09' W 002°05'0 0.0
2016-Nov-30 15:32N 57°09' W 002°05'0 0.0
2016-Nov-30 14:32N 57°09' W 002°05'0 0.0
2016-Nov-30 13:32N 57°09' W 002°05'0 0.0
2016-Nov-30 12:32N 57°09' W 002°05'0 0.0
2016-Nov-30 11:32N 57°09' W 002°05'0 0.0
2016-Nov-30 10:32N 57°09' W 002°05'0 0.0
2016-Nov-30 09:32N 57°09' W 002°05'0 0.0
2016-Nov-30 08:32N 57°09' W 002°05'0 0.0
2016-Nov-30 07:32N 57°09' W 002°05'0 0.0
2016-Nov-30 06:32N 57°09' W 002°05'0 0.0
2016-Nov-30 05:32N 57°09' W 002°05'0 0.0
2016-Nov-30 04:32N 57°09' W 002°05'0 0.0
2016-Nov-30 03:32N 57°09' W 002°05'0 0.0
2016-Nov-30 02:32N 57°09' W 002°05'0 0.0
2016-Nov-30 01:32N 57°09' W 002°05'0 0.0
2016-Nov-30 00:32N 57°09' W 002°05'0 0.0
2016-Nov-29 23:32N 57°09' W 002°05'0 0.0
2016-Nov-29 22:32N 57°09' W 002°05'0 0.0
2016-Nov-29 21:32N 57°09' W 002°05'0 0.0
2016-Nov-29 20:32N 57°09' W 002°05'0 0.0
2016-Nov-29 19:32N 57°09' W 002°05'0 0.0
2016-Nov-29 18:32N 57°09' W 002°05'0 0.0
2016-Nov-29 17:33N 57°09' W 002°05'6 5.9
2016-Nov-29 16:33N 57°09' W 001°54'9 8.7
2016-Nov-29 15:33N 57°08' W 001°38'7 7.4
2016-Nov-29 14:34N 57°09' W 001°52'7 7.2
2016-Nov-29 13:32N 57°09' W 002°05'0 0.0
2016-Nov-29 12:32N 57°09' W 002°05'0 0.0
2016-Nov-29 11:32N 57°09' W 002°05'0 0.0
2016-Nov-29 10:32N 57°09' W 002°05'0 0.0
2016-Nov-29 09:32N 57°09' W 002°05'0 0.0
2016-Nov-29 08:32N 57°09' W 002°05'0 0.0
2016-Nov-29 07:32N 57°09' W 002°05'0 0.0
2016-Nov-29 06:33N 57°09' W 002°05'3 3.4
2016-Nov-29 05:33N 57°11' W 002°00'1212.2
2016-Nov-29 04:33N 57°21' W 001°49'1212.2
2016-Nov-29 03:33N 57°33' W 001°43'7014.0
2016-Nov-28 22:33N 58°39' W 002°25'1614.6
2016-Nov-28 21:29N 58°54' W 002°34'1313.6
2016-Nov-28 20:33N 59°01' W 002°54'2 2.3
2016-Nov-28 19:32N 58°60' W 002°58'0 0.0
2016-Nov-28 18:32N 58°60' W 002°58'0 0.0
2016-Nov-28 17:32N 58°60' W 002°58'0 0.0
2016-Nov-28 16:32N 58°60' W 002°58'0 0.0
2016-Nov-28 15:32N 58°60' W 002°58'0 0.0
2016-Nov-28 14:32N 58°60' W 002°58'0 0.0
2016-Nov-28 13:32N 58°60' W 002°58'0 0.0
2016-Nov-28 12:32N 58°60' W 002°58'0 0.0
2016-Nov-28 11:32N 58°60' W 002°58'0 0.0
2016-Nov-28 10:32N 58°60' W 002°58'0 0.0
2016-Nov-28 09:32N 58°60' W 002°58'0 0.0
2016-Nov-28 08:32N 58°60' W 002°58'0 0.0
2016-Nov-28 07:32N 58°60' W 002°58'4 4.2
2016-Nov-28 06:33N 59°01' W 002°51'1111.5
2016-Nov-28 05:33N 59°03' W 002°29'2 1.8
2016-Nov-28 04:22N 59°03' W 002°25'1012.5
2016-Nov-28 03:33N 58°55' W 002°36'1510.6
2016-Nov-28 02:09N 58°40' W 002°31'7611.3
2016-Nov-27 19:26N 57°32' W 001°28'1910.3
2016-Nov-27 17:32N 57°14' W 001°42'8 8.5
2016-Nov-27 16:33N 57°11' W 001°56'5 5.2
2016-Nov-27 15:32N 57°09' W 002°05'0 0.0
2016-Nov-27 14:32N 57°09' W 002°05'0 0.0
2016-Nov-27 13:32N 57°09' W 002°05'0 0.0
2016-Nov-27 12:32N 57°09' W 002°05'0 0.0
2016-Nov-27 11:32N 57°09' W 002°05'0 0.0
2016-Nov-27 10:32N 57°09' W 002°05'0 0.0
2016-Nov-27 09:32N 57°09' W 002°05'1 0.7
2016-Nov-27 08:33N 57°09' W 002°04'1212.0
2016-Nov-27 07:33N 57°18' W 001°50'1212.0
2016-Nov-27 06:33N 57°29' W 001°40'100 4.2
2016-Nov-26 06:31N 59°05' W 002°28'1111.0
2016-Nov-26 05:33N 59°00' W 002°47'6 5.9
2016-Nov-26 04:33N 58°60' W 002°58'5 4.8
2016-Nov-26 03:33N 59°00' W 002°49'9511.8
2016-Nov-25 19:33N 57°33' W 001°40'2311.7
2016-Nov-25 17:33N 57°11' W 001°58'4 4.4
2016-Nov-25 16:31N 57°09' W 002°05'0 0.0
2016-Nov-25 15:31N 57°09' W 002°05'0 0.0
2016-Nov-25 14:31N 57°09' W 002°05'0 0.0
2016-Nov-25 13:31N 57°09' W 002°05'0 0.0
2016-Nov-25 12:31N 57°09' W 002°05'0 0.0
2016-Nov-25 11:31N 57°09' W 002°05'0 0.0
2016-Nov-25 10:32N 57°09' W 002°05'4 3.8
2016-Nov-25 09:33N 57°10' W 001°59'1313.1
2016-Nov-25 08:33N 57°21' W 001°45'1312.9
2016-Nov-25 07:33N 57°33' W 001°35'1 0.0
2016-Nov-23 21:24N 57°33' W 001°37'5 5.7
2016-Nov-23 20:33N 57°29' W 001°38'6 5.7
2016-Nov-23 19:31N 57°23' W 001°40'6 6.6
2016-Nov-23 18:33N 57°19' W 001°50'1212.2
2016-Nov-23 17:33N 57°09' W 002°02'2 1.6
2016-Nov-23 16:31N 57°09' W 002°05'0 0.0
2016-Nov-23 15:31N 57°09' W 002°05'0 0.0
2016-Nov-23 14:31N 57°09' W 002°05'0 0.0
2016-Nov-23 13:31N 57°09' W 002°05'0 0.0
2016-Nov-23 12:31N 57°09' W 002°05'0 0.0
2016-Nov-23 11:31N 57°09' W 002°05'0 0.0
2016-Nov-23 10:31N 57°09' W 002°05'0 0.0
2016-Nov-23 09:31N 57°09' W 002°05'0 0.0
2016-Nov-23 08:31N 57°09' W 002°05'0 0.0
2016-Nov-23 07:31N 57°09' W 002°05'0 0.0
2016-Nov-23 06:31N 57°09' W 002°05'0 0.0
2016-Nov-23 03:31N 57°09' W 002°05'0 0.0
2016-Nov-23 02:31N 57°09' W 002°05'0 0.0
2016-Nov-23 00:31N 57°09' W 002°05'0 0.0
2016-Nov-22 23:31N 57°09' W 002°05'0 0.0
2016-Nov-22 22:31N 57°09' W 002°05'0 0.0
2016-Nov-22 20:31N 57°09' W 002°05'0 0.0
2016-Nov-22 19:31N 57°09' W 002°05'0 0.0
2016-Nov-22 17:31N 57°09' W 002°05'0 0.0
2016-Nov-22 16:28N 57°09' W 002°05'0 0.0
2016-Nov-22 15:31N 57°09' W 002°05'0 0.0
2016-Nov-22 14:31N 57°09' W 002°05'0 0.0
2016-Nov-22 13:31N 57°09' W 002°05'0 0.0
2016-Nov-22 10:31N 57°09' W 002°05'0 0.0
2016-Nov-22 09:31N 57°09' W 002°05'0 0.0
2016-Nov-22 08:31N 57°09' W 002°05'1 0.9
2016-Nov-22 07:33N 57°09' W 002°04'2412.2
2016-Nov-22 05:33N 57°30' W 001°41'  
Track history (hours):
 
Tides and Currents Weather Stations Pressure Air Temp Water Temp Dewpoint Dewpoint Depression Visibility Wind Speed Wind Dir Waves Ship Positions

Helliar

Last reported at 2016-Dec-01 20:09 UTC. Time now 2016-Dec-03 00:23 UTC.
Position N 57°37' W 001°37'.

Length 122 m; draft 5.6 m.

Type: Cargo ship. MMSI: 235087119.

Date/timePositionNaut miles runAvg speedWind from/ knotsBaromVisibWave heightAir tempDewpointWater temp
2016-Dec-01 20:09N 57°37' W 001°37'914.6
2016-Dec-01 19:33N 57°28' W 001°40'1615.3
2016-Dec-01 18:31N 57°15' W 001°54'8 8.5
2016-Dec-01 17:32N 57°09' W 002°05'0 0.0
2016-Dec-01 16:32N 57°09' W 002°05'0 0.0
2016-Dec-01 15:32N 57°09' W 002°05'0 0.0
2016-Dec-01 14:32N 57°09' W 002°05'0 0.0
2016-Dec-01 13:29N 57°09' W 002°05'0 0.0
2016-Dec-01 12:32N 57°09' W 002°05'0 0.0
2016-Dec-01 11:32N 57°09' W 002°05'0 0.0
2016-Dec-01 10:32N 57°09' W 002°05'0 0.0
2016-Dec-01 09:32N 57°09' W 002°05'0 0.0
2016-Dec-01 08:32N 57°09' W 002°05'0 0.0
2016-Dec-01 07:32N 57°09' W 002°05'0 0.0
2016-Dec-01 06:32N 57°09' W 002°05'0 0.0
2016-Dec-01 05:32N 57°09' W 002°05'0 0.0
2016-Dec-01 04:32N 57°09' W 002°05'0 0.0
2016-Dec-01 03:32N 57°09' W 002°05'0 0.0
2016-Dec-01 02:32N 57°09' W 002°05'0 0.0
2016-Dec-01 01:32N 57°09' W 002°05'0 0.0
2016-Dec-01 00:32N 57°09' W 002°05'0 0.0
2016-Nov-30 23:32N 57°09' W 002°05'0 0.0
2016-Nov-30 22:32N 57°09' W 002°05'0 0.0
2016-Nov-30 21:32N 57°09' W 002°05'0 0.0
2016-Nov-30 20:32N 57°09' W 002°05'0 0.0
2016-Nov-30 19:32N 57°09' W 002°05'0 0.0
2016-Nov-30 18:32N 57°09' W 002°05'0 0.0
2016-Nov-30 17:32N 57°09' W 002°05'0 0.0
2016-Nov-30 16:32N 57°09' W 002°05'0 0.0
2016-Nov-30 15:32N 57°09' W 002°05'0 0.0
2016-Nov-30 14:32N 57°09' W 002°05'0 0.0
2016-Nov-30 13:32N 57°09' W 002°05'0 0.0
2016-Nov-30 12:32N 57°09' W 002°05'0 0.0
2016-Nov-30 11:32N 57°09' W 002°05'0 0.0
2016-Nov-30 10:32N 57°09' W 002°05'0 0.0
2016-Nov-30 09:32N 57°09' W 002°05'0 0.0
2016-Nov-30 08:32N 57°09' W 002°05'0 0.0
2016-Nov-30 07:32N 57°09' W 002°05'0 0.0
2016-Nov-30 06:32N 57°09' W 002°05'0 0.0
2016-Nov-30 05:32N 57°09' W 002°05'0 0.0
2016-Nov-30 04:32N 57°09' W 002°05'0 0.0
2016-Nov-30 03:32N 57°09' W 002°05'0 0.0
2016-Nov-30 02:32N 57°09' W 002°05'0 0.0
2016-Nov-30 01:32N 57°09' W 002°05'0 0.0
2016-Nov-30 00:32N 57°09' W 002°05'0 0.0
2016-Nov-29 23:32N 57°09' W 002°05'0 0.0
2016-Nov-29 22:32N 57°09' W 002°05'0 0.0
2016-Nov-29 21:32N 57°09' W 002°05'0 0.0
2016-Nov-29 20:32N 57°09' W 002°05'0 0.0
2016-Nov-29 19:32N 57°09' W 002°05'0 0.0
2016-Nov-29 18:32N 57°09' W 002°05'0 0.0
2016-Nov-29 17:33N 57°09' W 002°05'6 5.9
2016-Nov-29 16:33N 57°09' W 001°54'9 8.7
2016-Nov-29 15:33N 57°08' W 001°38'7 7.4
2016-Nov-29 14:34N 57°09' W 001°52'7 7.2
2016-Nov-29 13:32N 57°09' W 002°05'0 0.0
2016-Nov-29 12:32N 57°09' W 002°05'0 0.0
2016-Nov-29 11:32N 57°09' W 002°05'0 0.0
2016-Nov-29 10:32N 57°09' W 002°05'0 0.0
2016-Nov-29 09:32N 57°09' W 002°05'0 0.0
2016-Nov-29 08:32N 57°09' W 002°05'0 0.0
2016-Nov-29 07:32N 57°09' W 002°05'0 0.0
2016-Nov-29 06:33N 57°09' W 002°05'3 3.4
2016-Nov-29 05:33N 57°11' W 002°00'1212.2
2016-Nov-29 04:33N 57°21' W 001°49'1212.2
2016-Nov-29 03:33N 57°33' W 001°43'7014.0
2016-Nov-28 22:33N 58°39' W 002°25'1614.6
2016-Nov-28 21:29N 58°54' W 002°34'1313.6
2016-Nov-28 20:33N 59°01' W 002°54'2 2.3
2016-Nov-28 19:32N 58°60' W 002°58'0 0.0
2016-Nov-28 18:32N 58°60' W 002°58'0 0.0
2016-Nov-28 17:32N 58°60' W 002°58'0 0.0
2016-Nov-28 16:32N 58°60' W 002°58'0 0.0
2016-Nov-28 15:32N 58°60' W 002°58'0 0.0
2016-Nov-28 14:32N 58°60' W 002°58'0 0.0
2016-Nov-28 13:32N 58°60' W 002°58'0 0.0
2016-Nov-28 12:32N 58°60' W 002°58'0 0.0
2016-Nov-28 11:32N 58°60' W 002°58'0 0.0
2016-Nov-28 10:32N 58°60' W 002°58'0 0.0
2016-Nov-28 09:32N 58°60' W 002°58'0 0.0
2016-Nov-28 08:32N 58°60' W 002°58'0 0.0
2016-Nov-28 07:32N 58°60' W 002°58'4 4.2
2016-Nov-28 06:33N 59°01' W 002°51'1111.5
2016-Nov-28 05:33N 59°03' W 002°29'2 1.8
2016-Nov-28 04:22N 59°03' W 002°25'1012.5
2016-Nov-28 03:33N 58°55' W 002°36'1510.6
2016-Nov-28 02:09N 58°40' W 002°31'7611.3
2016-Nov-27 19:26N 57°32' W 001°28'1910.3
2016-Nov-27 17:32N 57°14' W 001°42'8 8.5
2016-Nov-27 16:33N 57°11' W 001°56'5 5.2
2016-Nov-27 15:32N 57°09' W 002°05'0 0.0
2016-Nov-27 14:32N 57°09' W 002°05'0 0.0
2016-Nov-27 13:32N 57°09' W 002°05'0 0.0
2016-Nov-27 12:32N 57°09' W 002°05'0 0.0
2016-Nov-27 11:32N 57°09' W 002°05'0 0.0
2016-Nov-27 10:32N 57°09' W 002°05'0 0.0
2016-Nov-27 09:32N 57°09' W 002°05'1 0.7
2016-Nov-27 08:33N 57°09' W 002°04'1212.0
2016-Nov-27 07:33N 57°18' W 001°50'1212.0
2016-Nov-27 06:33N 57°29' W 001°40'100 4.2
2016-Nov-26 06:31N 59°05' W 002°28'1111.0
2016-Nov-26 05:33N 59°00' W 002°47'6 5.9
2016-Nov-26 04:33N 58°60' W 002°58'5 4.8
2016-Nov-26 03:33N 59°00' W 002°49'9511.8
2016-Nov-25 19:33N 57°33' W 001°40'2311.7
2016-Nov-25 17:33N 57°11' W 001°58'4 4.4
2016-Nov-25 16:31N 57°09' W 002°05'0 0.0
2016-Nov-25 15:31N 57°09' W 002°05'0 0.0
2016-Nov-25 14:31N 57°09' W 002°05'0 0.0
2016-Nov-25 13:31N 57°09' W 002°05'0 0.0
2016-Nov-25 12:31N 57°09' W 002°05'0 0.0
2016-Nov-25 11:31N 57°09' W 002°05'0 0.0
2016-Nov-25 10:32N 57°09' W 002°05'4 3.8
2016-Nov-25 09:33N 57°10' W 001°59'1313.1
2016-Nov-25 08:33N 57°21' W 001°45'1312.9
2016-Nov-25 07:33N 57°33' W 001°35'1 0.0
2016-Nov-23 21:24N 57°33' W 001°37'5 5.7
2016-Nov-23 20:33N 57°29' W 001°38'6 5.7
2016-Nov-23 19:31N 57°23' W 001°40'6 6.6
2016-Nov-23 18:33N 57°19' W 001°50'1212.2
2016-Nov-23 17:33N 57°09' W 002°02'2 1.6
2016-Nov-23 16:31N 57°09' W 002°05'0 0.0
2016-Nov-23 15:31N 57°09' W 002°05'0 0.0
2016-Nov-23 14:31N 57°09' W 002°05'0 0.0
2016-Nov-23 13:31N 57°09' W 002°05'0 0.0
2016-Nov-23 12:31N 57°09' W 002°05'0 0.0
2016-Nov-23 11:31N 57°09' W 002°05'0 0.0
2016-Nov-23 10:31N 57°09' W 002°05'0 0.0
2016-Nov-23 09:31N 57°09' W 002°05'0 0.0
2016-Nov-23 08:31N 57°09' W 002°05'0 0.0
2016-Nov-23 07:31N 57°09' W 002°05'0 0.0
2016-Nov-23 06:31N 57°09' W 002°05'0 0.0
2016-Nov-23 03:31N 57°09' W 002°05'0 0.0
2016-Nov-23 02:31N 57°09' W 002°05'0 0.0
2016-Nov-23 00:31N 57°09' W 002°05'0 0.0
2016-Nov-22 23:31N 57°09' W 002°05'0 0.0
2016-Nov-22 22:31N 57°09' W 002°05'0 0.0
2016-Nov-22 20:31N 57°09' W 002°05'0 0.0
2016-Nov-22 19:31N 57°09' W 002°05'0 0.0
2016-Nov-22 17:31N 57°09' W 002°05'0 0.0
2016-Nov-22 16:28N 57°09' W 002°05'0 0.0
2016-Nov-22 15:31N 57°09' W 002°05'0 0.0
2016-Nov-22 14:31N 57°09' W 002°05'0 0.0
2016-Nov-22 13:31N 57°09' W 002°05'0 0.0
2016-Nov-22 10:31N 57°09' W 002°05'0 0.0
2016-Nov-22 09:31N 57°09' W 002°05'0 0.0
2016-Nov-22 08:31N 57°09' W 002°05'1 0.9
2016-Nov-22 07:33N 57°09' W 002°04'2412.2
2016-Nov-22 05:33N 57°30' W 001°41'  

Dump ship's entire track history